createdAt,value
2022-12-12T00:00:54.074Z,99533.16
2022-12-12T00:03:21.149Z,99531.81
2022-12-12T00:05:48.405Z,99534.28
2022-12-12T00:08:15.276Z,99528.69
2022-12-12T00:10:42.027Z,99536.44
2022-12-12T00:13:08.727Z,99529.63
2022-12-12T00:15:35.581Z,99526.22
2022-12-12T00:18:02.299Z,99520.09
2022-12-12T00:20:29.080Z,99522.38
2022-12-12T00:22:56.044Z,99524.97
2022-12-12T00:25:22.903Z,99530.03
2022-12-12T00:27:49.654Z,99511.19
2022-12-12T00:30:16.499Z,99513.56
2022-12-12T00:32:43.196Z,99508.09
2022-12-12T00:35:10.323Z,99509.13
2022-12-12T00:37:37.316Z,99498.34
2022-12-12T00:40:06.310Z,99507.47
2022-12-12T00:42:33.133Z,99508.72
2022-12-12T00:45:00.041Z,99509.25
2022-12-12T00:47:26.756Z,99503.94
2022-12-12T00:49:53.507Z,99493.06
2022-12-12T00:52:20.438Z,99494.63
2022-12-12T00:54:47.258Z,99485.16
2022-12-12T00:57:13.998Z,99485.03
2022-12-12T00:59:40.835Z,99474.56
2022-12-12T01:02:07.700Z,99480.25
2022-12-12T01:04:34.512Z,99463.66
2022-12-12T01:07:01.593Z,99481.19
2022-12-12T01:09:28.275Z,99476.31
2022-12-12T01:11:55.012Z,99472.97
2022-12-12T01:14:22.071Z,99464.38
2022-12-12T01:16:48.823Z,99461.00
2022-12-12T01:19:15.881Z,99438.50
2022-12-12T01:21:42.962Z,99443.53
2022-12-12T01:24:09.685Z,99433.41
2022-12-12T01:26:37.724Z,99426.50
2022-12-12T01:29:04.624Z,99416.69
2022-12-12T01:31:31.463Z,99390.31
2022-12-12T01:33:58.202Z,99416.41
2022-12-12T01:36:25.118Z,99399.91
2022-12-12T01:38:54.403Z,99395.38
2022-12-12T01:41:21.483Z,99385.00
2022-12-12T01:43:48.447Z,99393.22
2022-12-12T01:46:39.184Z,99393.91
2022-12-12T01:49:16.332Z,99392.47
2022-12-12T01:51:44.756Z,99395.13
2022-12-12T01:54:19.301Z,99411.81
2022-12-12T01:56:47.880Z,99404.94
2022-12-12T01:59:17.740Z,99389.34
2022-12-12T02:01:45.090Z,99369.25
2022-12-12T02:04:13.170Z,99383.97
2022-12-12T02:06:41.107Z,99384.81
2022-12-12T02:09:12.516Z,99373.00
2022-12-12T02:11:48.784Z,99381.09
2022-12-12T02:14:20.786Z,99375.03
2022-12-12T02:17:08.934Z,99367.44
2022-12-12T02:20:04.537Z,99358.72
2022-12-12T02:22:34.214Z,99356.31
2022-12-12T02:25:39.769Z,99356.81
2022-12-12T02:28:27.962Z,99351.38
2022-12-12T02:31:26.981Z,99355.34
2022-12-12T02:34:24.335Z,99330.56
2022-12-12T02:37:01.545Z,99337.13
2022-12-12T02:39:45.218Z,99324.38
2022-12-12T02:42:26.440Z,99326.00
2022-12-12T02:45:07.657Z,99339.16
2022-12-12T02:47:42.936Z,99310.41
2022-12-12T02:50:15.304Z,99316.16
2022-12-12T02:52:47.620Z,99308.69
2022-12-12T02:55:15.487Z,99302.56
2022-12-12T02:57:42.451Z,99295.09
2022-12-12T03:00:15.942Z,99294.56
2022-12-12T03:03:17.692Z,99281.28
2022-12-12T03:06:14.689Z,99267.81
2022-12-12T03:09:10.778Z,99259.88
2022-12-12T03:11:57.741Z,99270.09
2022-12-12T03:14:38.968Z,99253.16
2022-12-12T03:17:15.491Z,99251.44
2022-12-12T03:19:48.883Z,99245.81
2022-12-12T03:22:30.483Z,99252.53
2022-12-12T03:25:16.306Z,99246.78
2022-12-12T03:27:57.720Z,99224.84
2022-12-12T03:30:24.944Z,99255.03
2022-12-12T03:33:04.074Z,99243.22
2022-12-12T03:35:37.692Z,99235.59
2022-12-12T03:38:14.280Z,99230.44
2022-12-12T03:40:58.412Z,99223.53
2022-12-12T03:43:38.070Z,99219.44
2022-12-12T03:46:25.765Z,99217.69
2022-12-12T03:49:05.535Z,99195.84
2022-12-12T03:51:39.886Z,99183.47
2022-12-12T03:54:19.264Z,99199.78
2022-12-12T03:57:21.087Z,99190.19
2022-12-12T03:59:55.509Z,99160.03
2022-12-12T04:02:25.037Z,99164.31
2022-12-12T04:05:02.191Z,99151.06
2022-12-12T04:07:41.760Z,99164.81
2022-12-12T04:10:28.872Z,99160.34
2022-12-12T04:13:32.251Z,99158.59
2022-12-12T04:16:15.642Z,99157.06
2022-12-12T04:19:37.336Z,99158.03
2022-12-12T04:22:27.419Z,99158.22
2022-12-12T04:25:12.929Z,99144.16
2022-12-12T04:27:46.019Z,99139.84
2022-12-12T04:30:15.572Z,99151.41
2022-12-12T04:32:51.335Z,99131.59
2022-12-12T04:35:24.052Z,99143.47
2022-12-12T04:38:01.049Z,99121.63
2022-12-12T04:40:31.760Z,99134.53
2022-12-12T04:43:03.714Z,99121.88
2022-12-12T04:45:39.423Z,99115.78
2022-12-12T04:48:09.447Z,99117.91
2022-12-12T04:50:37.471Z,99080.38
2022-12-12T04:53:13.414Z,99088.22
2022-12-12T04:55:48.319Z,99066.16
2022-12-12T04:58:15.674Z,99086.69
2022-12-12T05:00:56.020Z,99056.78
2022-12-12T05:03:33.823Z,99058.66
2022-12-12T05:06:05.880Z,99056.09
2022-12-12T05:08:45.293Z,98996.63
2022-12-12T05:11:12.770Z,98986.19
2022-12-12T05:13:42.870Z,99010.84
2022-12-12T05:16:29.788Z,99017.25
2022-12-12T05:18:56.632Z,99034.75
2022-12-12T05:21:23.327Z,99014.25
2022-12-12T05:23:50.426Z,99011.66
2022-12-12T05:26:26.962Z,98989.34
2022-12-12T05:28:54.444Z,99052.00
2022-12-12T05:31:21.876Z,99026.16
2022-12-12T05:33:49.178Z,99020.44
2022-12-12T05:36:16.699Z,99059.97
2022-12-12T05:38:43.421Z,99073.91
2022-12-12T05:41:10.479Z,99074.75
2022-12-12T05:43:39.121Z,99063.47
2022-12-12T05:46:06.776Z,99039.09
2022-12-12T05:48:34.185Z,99012.81
2022-12-12T05:51:02.858Z,99020.53
2022-12-12T05:53:30.797Z,99008.59
2022-12-12T05:55:57.611Z,98984.66
2022-12-12T05:58:24.490Z,98986.19
2022-12-12T06:00:52.189Z,99002.25
2022-12-12T06:03:20.756Z,98992.97
2022-12-12T06:05:47.522Z,98993.94
2022-12-12T06:08:14.704Z,98990.06
2022-12-12T06:10:42.819Z,98974.56
2022-12-12T06:13:09.701Z,98989.13
2022-12-12T06:15:40.388Z,98977.16
2022-12-12T06:18:08.324Z,98978.44
2022-12-12T06:20:36.067Z,98964.84
2022-12-12T06:23:02.770Z,98994.28
2022-12-12T06:25:29.756Z,98975.16
2022-12-12T06:27:57.949Z,98986.06
2022-12-12T06:30:26.173Z,98953.69
2022-12-12T06:32:52.885Z,98931.88
2022-12-12T06:35:19.718Z,98943.38
2022-12-12T06:37:48.636Z,98931.38
2022-12-12T06:40:15.391Z,98939.38
2022-12-12T06:42:47.889Z,98941.22
2022-12-12T06:45:16.048Z,98972.56
2022-12-12T06:47:42.950Z,98948.53
2022-12-12T06:50:09.915Z,98941.00
2022-12-12T06:52:36.691Z,98937.97
2022-12-12T06:55:04.164Z,98911.06
2022-12-12T06:57:31.172Z,98909.91
2022-12-12T06:59:58.019Z,98903.00
2022-12-12T07:02:29.628Z,98906.28
2022-12-12T07:04:58.017Z,98906.63
2022-12-12T07:07:24.810Z,98886.81
2022-12-12T07:09:51.575Z,98909.56
2022-12-12T07:12:18.368Z,98884.47
2022-12-12T07:14:45.056Z,98889.84
2022-12-12T07:17:11.823Z,98897.38
2022-12-12T07:19:38.639Z,98880.97
2022-12-12T07:22:09.658Z,98895.56
2022-12-12T07:24:36.829Z,98871.31
2022-12-12T07:27:03.865Z,98885.84
2022-12-12T07:29:30.756Z,98910.75
2022-12-12T07:31:57.700Z,98873.66
2022-12-12T07:34:24.587Z,98880.69
2022-12-12T07:36:51.585Z,98889.63
2022-12-12T07:39:20.955Z,98851.31
2022-12-12T07:41:48.390Z,98857.03
2022-12-12T07:44:16.668Z,98873.22
2022-12-12T07:46:43.462Z,98857.59
2022-12-12T07:49:10.214Z,98869.22
2022-12-12T07:51:40.962Z,98827.38
2022-12-12T07:54:10.916Z,98856.88
2022-12-12T07:56:37.637Z,98824.56
2022-12-12T07:59:04.479Z,98886.59
2022-12-12T08:01:31.301Z,98827.19
2022-12-12T08:03:58.965Z,98845.72
2022-12-12T08:06:26.117Z,98852.06
2022-12-12T08:08:53.796Z,98849.72
2022-12-12T08:11:23.402Z,98861.91
2022-12-12T08:13:51.047Z,98857.94
2022-12-12T08:16:26.896Z,98822.22
2022-12-12T08:18:55.537Z,98842.47
2022-12-12T08:21:26.191Z,98829.19
2022-12-12T08:23:58.377Z,98822.56
2022-12-12T08:26:26.363Z,98834.31
2022-12-12T08:28:53.457Z,98837.13
2022-12-12T08:31:21.455Z,98849.69
2022-12-12T08:33:50.860Z,98838.84
2022-12-12T08:36:21.295Z,98843.66
2022-12-12T08:38:48.808Z,98844.94
2022-12-12T08:41:16.448Z,98836.94
2022-12-12T08:43:44.290Z,98814.41
2022-12-12T08:46:17.486Z,98844.94
2022-12-12T08:48:46.036Z,98853.03
2022-12-12T08:51:13.635Z,98854.84
2022-12-12T08:53:40.468Z,98845.81
2022-12-12T08:56:09.260Z,98854.94
2022-12-12T08:58:36.040Z,98858.22
2022-12-12T09:01:03.837Z,98847.06
2022-12-12T09:03:30.662Z,98835.41
2022-12-12T09:05:57.456Z,98864.41
2022-12-12T09:08:24.674Z,98838.31
2022-12-12T09:10:51.681Z,98849.59
2022-12-12T09:13:18.494Z,98888.94
2022-12-12T09:15:45.517Z,98900.41
2022-12-12T09:18:12.586Z,98921.78
2022-12-12T09:20:39.703Z,98958.03
2022-12-12T09:23:06.498Z,98938.31
2022-12-12T09:25:33.488Z,98928.66
2022-12-12T09:28:00.235Z,98911.75
2022-12-12T09:30:26.954Z,98943.94
2022-12-12T09:32:53.899Z,98935.00
2022-12-12T09:35:20.654Z,98937.94
2022-12-12T09:37:47.447Z,98937.22
2022-12-12T09:40:28.139Z,98971.41
2022-12-12T09:42:55.609Z,98965.38
2022-12-12T09:45:22.899Z,98945.78
2022-12-12T09:48:00.720Z,98952.50
2022-12-12T09:50:32.616Z,98957.03
2022-12-12T09:53:03.395Z,98992.50
2022-12-12T09:55:39.065Z,98973.94
2022-12-12T09:58:17.912Z,98976.75
2022-12-12T10:00:52.843Z,98960.13
2022-12-12T10:03:42.490Z,98981.56
2022-12-12T10:06:36.535Z,98960.31
2022-12-12T10:09:13.318Z,98990.03
2022-12-12T10:11:50.885Z,99001.78
2022-12-12T10:14:42.479Z,98992.41
2022-12-12T10:17:16.523Z,99013.28
2022-12-12T10:20:06.420Z,98992.50
2022-12-12T10:22:33.191Z,99017.69
2022-12-12T10:25:25.724Z,99017.88
2022-12-12T10:28:00.154Z,99008.81
2022-12-12T10:30:32.649Z,98997.53
2022-12-12T10:33:14.102Z,98985.88
2022-12-12T10:36:06.433Z,98978.34
2022-12-12T10:38:45.149Z,98980.34
2022-12-12T10:41:23.053Z,98972.72
2022-12-12T10:43:59.892Z,98984.38
2022-12-12T10:47:02.195Z,98965.25
2022-12-12T10:49:29.845Z,98975.09
2022-12-12T10:52:00.072Z,98988.91
2022-12-12T10:54:28.691Z,99011.13
2022-12-12T10:57:16.540Z,98985.88
2022-12-12T10:59:52.847Z,98999.47
2022-12-12T11:02:34.868Z,99007.59
2022-12-12T11:05:06.439Z,98997.03
2022-12-12T11:07:45.147Z,99009.94
2022-12-12T11:10:34.854Z,99000.28
2022-12-12T11:13:21.900Z,99004.19
2022-12-12T11:16:17.371Z,99014.53
2022-12-12T11:19:01.893Z,99006.28
2022-12-12T11:21:31.912Z,99007.69
2022-12-12T11:23:59.974Z,99039.22
2022-12-12T11:26:29.221Z,99050.56
2022-12-12T11:29:02.753Z,99047.97
2022-12-12T11:31:35.208Z,99055.22
2022-12-12T11:34:06.524Z,99054.84
2022-12-12T11:36:39.118Z,99034.41
2022-12-12T11:39:22.301Z,99042.06
2022-12-12T11:41:58.355Z,99047.34
2022-12-12T11:44:28.392Z,99054.63
2022-12-12T11:46:54.959Z,99048.34
2022-12-12T11:49:21.687Z,99047.34
2022-12-12T11:51:49.356Z,99048.41
2022-12-12T11:54:21.888Z,99037.69
2022-12-12T11:57:06.300Z,99038.41
2022-12-12T11:59:48.852Z,99047.78
2022-12-12T12:03:03.906Z,99051.69
2022-12-12T12:05:55.497Z,99042.47
2022-12-12T12:08:48.573Z,99057.53
2022-12-12T12:11:43.151Z,99055.16
2022-12-12T12:14:09.933Z,99061.69
2022-12-12T12:17:00.823Z,99052.91
2022-12-12T12:19:51.882Z,99053.81
2022-12-12T12:23:07.763Z,99059.25
2022-12-12T12:25:43.501Z,99038.91
2022-12-12T12:28:36.874Z,99039.03
2022-12-12T12:31:33.197Z,99035.97
2022-12-12T12:34:21.094Z,99021.25
2022-12-12T12:37:09.525Z,99045.03
2022-12-12T12:40:02.234Z,99037.75
2022-12-12T12:42:53.503Z,99034.47
2022-12-12T12:45:25.978Z,99039.56
2022-12-12T12:48:03.466Z,99025.09
2022-12-12T12:50:43.254Z,99014.53
2022-12-12T12:53:21.963Z,99018.06
2022-12-12T12:55:53.190Z,99018.53
2022-12-12T12:58:28.597Z,99018.97
2022-12-12T13:01:21.236Z,99014.53
2022-12-12T13:04:08.348Z,99007.25
2022-12-12T13:07:04.326Z,99007.25
2022-12-12T13:09:57.727Z,99029.97
2022-12-12T13:12:38.668Z,99033.59
2022-12-12T13:15:14.738Z,99016.34
2022-12-12T13:18:15.432Z,99010.84
2022-12-12T13:20:52.657Z,99025.16
2022-12-12T13:23:37.360Z,98990.97
2022-12-12T13:26:13.014Z,99020.88
2022-12-12T13:28:45.938Z,99030.63
2022-12-12T13:31:39.492Z,99021.69
2022-12-12T13:34:08.648Z,99033.94
2022-12-12T13:36:39.599Z,99018.00
2022-12-12T13:39:09.229Z,99024.56
2022-12-12T13:42:21.248Z,99018.00
2022-12-12T13:44:49.592Z,99038.41
2022-12-12T13:47:22.272Z,99043.13
2022-12-12T13:50:19.235Z,99037.19
2022-12-12T13:53:08.653Z,99023.47
2022-12-12T13:55:36.635Z,99021.47
2022-12-12T13:58:18.155Z,99016.91
2022-12-12T14:00:45.250Z,99043.94
2022-12-12T14:03:12.017Z,99047.13
2022-12-12T14:05:44.730Z,99044.13
2022-12-12T14:08:11.667Z,99039.75
2022-12-12T14:10:53.710Z,99038.72
2022-12-12T14:13:23.867Z,99040.38
2022-12-12T14:16:04.825Z,99052.47
2022-12-12T14:18:49.680Z,99039.19
2022-12-12T14:21:18.928Z,99027.53
2022-12-12T14:23:51.073Z,99034.75
2022-12-12T14:26:29.775Z,99034.03
2022-12-12T14:29:18.390Z,99043.19
2022-12-12T14:32:13.485Z,99041.00
2022-12-12T14:35:13.963Z,99038.44
2022-12-12T14:38:00.067Z,99026.59
2022-12-12T14:40:38.008Z,99033.59
2022-12-12T14:43:21.570Z,99038.81
2022-12-12T14:45:55.770Z,99039.63
2022-12-12T14:48:35.050Z,99040.53
2022-12-12T14:51:13.156Z,99039.72
2022-12-12T14:53:52.292Z,99055.25
2022-12-12T14:56:21.052Z,99055.25
2022-12-12T14:58:50.860Z,99056.16
2022-12-12T15:01:32.608Z,99046.97
2022-12-12T15:04:02.119Z,99060.16
2022-12-12T15:06:43.387Z,99054.19
2022-12-12T15:09:20.332Z,99056.53
2022-12-12T15:11:48.623Z,99068.38
2022-12-12T15:14:23.237Z,99077.28
2022-12-12T15:16:53.016Z,99070.94
2022-12-12T15:19:25.740Z,99066.94
2022-12-12T15:21:52.734Z,99054.22
2022-12-12T15:24:22.982Z,99055.34
2022-12-12T15:26:52.204Z,99072.81
2022-12-12T15:29:23.320Z,99073.91
2022-12-12T15:31:57.554Z,99090.91
2022-12-12T15:34:41.247Z,99098.47
2022-12-12T15:37:29.020Z,99091.78
2022-12-12T15:40:10.875Z,99101.63
2022-12-12T15:42:40.655Z,99107.28
2022-12-12T15:45:15.544Z,99087.09
2022-12-12T15:47:42.566Z,99088.81
2022-12-12T15:50:25.280Z,99084.50
2022-12-12T15:53:05.878Z,99104.72
2022-12-12T15:55:33.890Z,99109.56
2022-12-12T15:58:01.113Z,99113.91
2022-12-12T16:00:32.709Z,99104.38
2022-12-12T16:03:00.775Z,99123.38
2022-12-12T16:05:34.192Z,99117.41
2022-12-12T16:08:33.687Z,99107.47
2022-12-12T16:11:03.000Z,99111.53
2022-12-12T16:13:40.803Z,99108.38
2022-12-12T16:16:56.203Z,99122.19
2022-12-12T16:19:26.453Z,99126.00
2022-12-12T16:21:54.238Z,99140.94
2022-12-12T16:24:25.397Z,99120.75
2022-12-12T16:26:56.866Z,99118.38
2022-12-12T16:29:23.560Z,99117.78
2022-12-12T16:31:50.411Z,99131.66
2022-12-12T16:34:18.029Z,99128.38
2022-12-12T16:36:44.738Z,99124.28
2022-12-12T16:39:13.056Z,99120.16
2022-12-12T16:41:40.257Z,99123.50
2022-12-12T16:44:06.955Z,99118.94
2022-12-12T16:46:33.744Z,99119.47
2022-12-12T16:49:04.847Z,99121.44
2022-12-12T16:51:34.279Z,99120.06
2022-12-12T16:54:01.380Z,99110.88
2022-12-12T16:56:28.307Z,99116.41
2022-12-12T16:58:56.338Z,99137.19
2022-12-12T17:01:23.150Z,99129.56
2022-12-12T17:03:50.149Z,99120.88
2022-12-12T17:06:17.084Z,99141.63
2022-12-12T17:08:43.838Z,99120.97
2022-12-12T17:11:11.546Z,99132.69
2022-12-12T17:13:43.129Z,99134.22
2022-12-12T17:16:09.970Z,99146.41
2022-12-12T17:18:36.990Z,99127.41
2022-12-12T17:21:03.903Z,99142.31
2022-12-12T17:23:30.673Z,99123.50
2022-12-12T17:26:03.576Z,99127.03
2022-12-12T17:28:34.123Z,99132.69
2022-12-12T17:31:01.407Z,99156.53
2022-12-12T17:33:28.455Z,99145.25
2022-12-12T17:36:01.177Z,99159.34
2022-12-12T17:38:28.217Z,99160.50
2022-12-12T17:40:56.860Z,99165.81
2022-12-12T17:43:26.558Z,99161.47
2022-12-12T17:45:58.508Z,99174.59
2022-12-12T17:48:28.430Z,99172.16
2022-12-12T17:51:03.948Z,99174.50
2022-12-12T17:53:32.565Z,99174.59
2022-12-12T17:56:01.175Z,99169.81
2022-12-12T17:58:39.300Z,99183.06
2022-12-12T18:01:16.769Z,99179.81
2022-12-12T18:03:44.316Z,99183.34
2022-12-12T18:06:11.923Z,99184.84
2022-12-12T18:08:40.767Z,99196.50
2022-12-12T18:11:09.501Z,99194.84
2022-12-12T18:13:36.603Z,99200.03
2022-12-12T18:16:03.465Z,99208.50
2022-12-12T18:18:30.311Z,99208.84
2022-12-12T18:21:02.618Z,99192.50
2022-12-12T18:23:29.305Z,99201.81
2022-12-12T18:25:56.449Z,99215.91
2022-12-12T18:28:23.128Z,99204.84
2022-12-12T18:30:50.400Z,99219.06
2022-12-12T18:33:17.361Z,99192.41
2022-12-12T18:35:44.164Z,99199.47
2022-12-12T18:38:10.855Z,99219.06
2022-12-12T18:40:39.435Z,99214.63
2022-12-12T18:43:06.295Z,99217.63
2022-12-12T18:45:36.859Z,99222.59
2022-12-12T18:48:03.882Z,99221.16
2022-12-12T18:50:30.569Z,99243.00
2022-12-12T18:52:57.263Z,99232.56
2022-12-12T18:55:26.289Z,99232.09
2022-12-12T18:57:53.053Z,99246.53
2022-12-12T19:00:20.519Z,99241.75
2022-12-12T19:02:47.347Z,99230.34
2022-12-12T19:05:14.525Z,99237.63
2022-12-12T19:07:42.176Z,99236.44
2022-12-12T19:10:09.218Z,99240.88
2022-12-12T19:12:36.480Z,99238.81
2022-12-12T19:15:18.771Z,99248.91
2022-12-12T19:17:45.660Z,99249.34
2022-12-12T19:20:13.174Z,99253.00
2022-12-12T19:22:45.500Z,99253.47
2022-12-12T19:25:14.411Z,99256.16
2022-12-12T19:27:41.265Z,99259.91
2022-12-12T19:30:08.542Z,99255.13
2022-12-12T19:32:35.460Z,99254.97
2022-12-12T19:35:02.406Z,99260.75
2022-12-12T19:37:29.263Z,99266.75
2022-12-12T19:39:57.141Z,99274.25
2022-12-12T19:42:23.832Z,99265.09
2022-12-12T19:44:50.537Z,99273.56
2022-12-12T19:47:18.991Z,99282.47
2022-12-12T19:49:45.728Z,99270.63
2022-12-12T19:52:14.420Z,99286.59
2022-12-12T19:54:41.516Z,99274.50
2022-12-12T19:57:08.214Z,99280.66
2022-12-12T19:59:35.092Z,99280.13
2022-12-12T20:02:01.931Z,99278.97
2022-12-12T20:04:30.355Z,99281.09
2022-12-12T20:06:57.433Z,99269.94
2022-12-12T20:09:29.602Z,99260.19
2022-12-12T20:11:59.458Z,99262.28
2022-12-12T20:14:32.851Z,99253.72
2022-12-12T20:17:00.166Z,99261.03
2022-12-12T20:19:27.593Z,99257.84
2022-12-12T20:22:03.544Z,99269.59
2022-12-12T20:24:33.528Z,99256.31
2022-12-12T20:27:03.295Z,99249.84
2022-12-12T20:29:30.729Z,99263.97
2022-12-12T20:31:59.937Z,99255.72
2022-12-12T20:34:28.074Z,99261.13
2022-12-12T20:36:58.869Z,99258.09
2022-12-12T20:39:26.230Z,99281.31
2022-12-12T20:41:54.169Z,99273.34
2022-12-12T20:44:22.663Z,99262.50
2022-12-12T20:46:49.443Z,99265.22
2022-12-12T20:49:19.351Z,99281.91
2022-12-12T20:51:55.281Z,99269.34
2022-12-12T20:54:24.617Z,99279.91
2022-12-12T20:56:52.609Z,99279.22
2022-12-12T20:59:19.538Z,99285.66
2022-12-12T21:01:47.760Z,99279.22
2022-12-12T21:04:15.382Z,99287.19
2022-12-12T21:06:44.755Z,99286.47
2022-12-12T21:09:15.092Z,99288.84
2022-12-12T21:11:44.635Z,99285.31
2022-12-12T21:14:12.362Z,99293.06
2022-12-12T21:16:40.040Z,99297.53
2022-12-12T21:19:11.765Z,99295.88
2022-12-12T21:21:41.330Z,99303.50
2022-12-12T21:24:08.379Z,99297.53
2022-12-12T21:26:35.294Z,99281.31
2022-12-12T21:29:02.631Z,99289.53
2022-12-12T21:31:32.031Z,99288.38
2022-12-12T21:33:59.823Z,99295.53
2022-12-12T21:36:28.219Z,99294.00
2022-12-12T21:38:57.092Z,99286.38
2022-12-12T21:41:25.461Z,99295.66
2022-12-12T21:43:52.816Z,99299.66
2022-12-12T21:46:26.182Z,99294.34
2022-12-12T21:49:12.516Z,99286.72
2022-12-12T21:51:40.507Z,99298.09
2022-12-12T21:54:08.400Z,99289.31
2022-12-12T21:56:35.628Z,99291.75
2022-12-12T21:59:03.494Z,99276.38
2022-12-12T22:01:32.415Z,99291.03
2022-12-12T22:04:00.211Z,99280.56
2022-12-12T22:06:29.700Z,99281.53
2022-12-12T22:08:57.825Z,99285.50
2022-12-12T22:11:40.212Z,99274.22
2022-12-12T22:14:11.916Z,99263.66
2022-12-12T22:16:38.898Z,99275.44
2022-12-12T22:19:09.888Z,99270.00
2022-12-12T22:21:37.087Z,99265.91
2022-12-12T22:24:04.069Z,99265.34
2022-12-12T22:26:42.205Z,99257.13
2022-12-12T22:29:12.333Z,99257.69
2022-12-12T22:31:40.844Z,99255.94
2022-12-12T22:34:14.672Z,99249.50
2022-12-12T22:36:42.033Z,99247.00
2022-12-12T22:39:15.378Z,99251.22
2022-12-12T22:41:42.134Z,99255.25
2022-12-12T22:44:13.231Z,99261.31
2022-12-12T22:46:43.863Z,99245.47
2022-12-12T22:49:14.608Z,99249.13
2022-12-12T22:51:42.960Z,99246.19
2022-12-12T22:54:09.784Z,99251.81
2022-12-12T22:56:38.270Z,99230.56
2022-12-12T22:59:06.161Z,99247.59
2022-12-12T23:01:33.617Z,99236.56
2022-12-12T23:04:00.521Z,99229.16
2022-12-12T23:06:35.460Z,99222.59
2022-12-12T23:09:06.247Z,99228.34
2022-12-12T23:11:34.339Z,99220.38
2022-12-12T23:14:04.661Z,99214.63
2022-12-12T23:16:31.746Z,99211.09
2022-12-12T23:18:59.178Z,99192.50
2022-12-12T23:21:27.172Z,99202.38
2022-12-12T23:23:55.441Z,99201.22
2022-12-12T23:26:25.220Z,99199.66
2022-12-12T23:28:52.365Z,99201.66
2022-12-12T23:31:22.357Z,99195.69
2022-12-12T23:33:51.878Z,99190.03
2022-12-12T23:36:18.763Z,99199.56
2022-12-12T23:38:45.592Z,99213.16
2022-12-12T23:41:14.480Z,99196.25
2022-12-12T23:43:42.071Z,99204.00
2022-12-12T23:46:28.183Z,99181.91
2022-12-12T23:49:07.440Z,99183.16
2022-12-12T23:51:39.779Z,99188.56
2022-12-12T23:54:10.437Z,99170.03
2022-12-12T23:56:38.162Z,99166.13
2022-12-12T23:59:04.908Z,99171.03
